Time;durP1;ratioP1;P1;durP2;ratioP2;P2;SDS_P1;SDS_P2;PMS_P1;PMS_P2;Temp;Humidity;BMP_temperature;BMP_pressure;BME280_temperature;BME280_humidity;BME280_pressure;Samples;Min_cycle;Max_cycle;Signal;HPM_P1;HPM_P2
2022/11/14 00:02:24;;;;;;;0.40;0.40;;;;;;;10.73;99.18;101729.47;5067944;28;20029;-75
2022/11/14 00:04:49;;;;;;;0.40;0.40;;;;;;;10.76;99.33;101734.69;5068071;28;20036;-74
2022/11/14 00:07:15;;;;;;;0.40;0.40;;;;;;;10.71;99.48;101720.78;5067884;28;20081;-74
2022/11/14 00:09:43;;;;;;;0.40;0.40;;;;;;;10.73;99.55;101714.75;5049926;28;20100;-74
2022/11/14 00:12:09;;;;;;;0.30;0.30;;;;;;;10.74;99.65;101720.81;5067821;28;20025;-75
2022/11/14 00:14:35;;;;;;;1.42;1.33;;;;;;;10.77;99.53;101710.44;5067885;28;20465;-74
2022/11/14 00:17:00;;;;;;;0.40;0.40;;;;;;;10.82;99.11;101713.09;5067607;28;20036;-74
2022/11/14 00:19:25;;;;;;;0.40;0.40;;;;;;;10.80;98.75;101713.09;5049858;28;20081;-74
2022/11/14 00:21:52;;;;;;;0.40;0.40;;;;;;;10.77;98.59;101716.53;5067667;28;20036;-73
2022/11/14 00:24:18;;;;;;;0.40;0.40;;;;;;;10.76;98.67;101714.78;5067775;28;20064;-73
2022/11/14 00:26:43;;;;;;;0.40;0.40;;;;;;;10.75;98.50;101707.00;5049845;28;20512;-73
2022/11/14 00:29:13;;;;;;;0.40;0.40;;;;;;;10.75;98.36;101709.59;5067576;28;20088;-73
2022/11/14 00:31:38;;;;;;;0.40;0.40;;;;;;;10.70;98.78;101703.47;5067195;28;20025;-73
2022/11/14 00:34:04;;;;;;;0.40;0.40;;;;;;;10.72;98.43;101710.41;5067520;28;20032;-74
2022/11/14 00:36:30;;;;;;;0.40;0.40;;;;;;;10.65;98.53;101701.66;5067591;28;20025;-72
2022/11/14 00:38:55;;;;;;;0.40;0.40;;;;;;;10.71;97.92;101695.69;5067686;28;20029;-73
2022/11/14 00:41:21;;;;;;;0.40;0.40;;;;;;;10.68;98.31;101687.84;5067365;28;20485;-73
2022/11/14 00:43:46;;;;;;;0.40;0.40;;;;;;;10.59;98.33;101690.34;5067354;28;20059;-74
2022/11/14 00:46:12;;;;;;;0.40;0.40;;;;;;;10.57;98.29;101694.63;5049609;28;20163;-73
2022/11/14 00:48:37;;;;;;;0.40;0.40;;;;;;;10.56;98.71;101688.56;5067179;28;20025;-72
2022/11/14 00:51:03;;;;;;;0.40;0.40;;;;;;;10.51;98.76;101692.84;5049362;28;20021;-72
2022/11/14 00:53:28;;;;;;;0.40;0.40;;;;;;;10.57;98.71;101698.13;5067117;28;20028;-72
2022/11/14 00:55:54;;;;;;;0.50;0.50;;;;;;;10.54;99.24;101698.09;5067011;28;20063;-72
2022/11/14 00:58:19;;;;;;;0.40;0.40;;;;;;;10.55;99.23;101694.63;5067314;28;20021;-72
2022/11/14 01:00:44;;;;;;;0.40;0.40;;;;;;;10.53;99.20;101685.94;5049156;28;20021;-72
2022/11/14 01:03:10;;;;;;;0.43;0.43;;;;;;;10.57;99.00;101689.44;5066704;28;20024;-72
2022/11/14 01:05:47;;;;;;;0.40;0.40;;;;;;;10.55;98.85;101689.44;5066981;28;20053;-72
2022/11/14 01:08:14;;;;;;;0.65;0.65;;;;;;;10.48;98.87;101688.47;5048882;28;20040;-72
2022/11/14 01:10:40;;;;;;;0.40;0.40;;;;;;;10.41;99.44;101681.44;5066785;28;20025;-72
2022/11/14 01:13:06;;;;;;;0.50;0.50;;;;;;;10.44;99.38;101678.00;5066548;28;20028;-72
2022/11/14 01:15:31;;;;;;;0.40;0.40;;;;;;;10.40;98.93;101672.75;5066748;28;20025;-74
2022/11/14 01:17:57;;;;;;;0.40;0.40;;;;;;;10.37;98.89;101667.53;5066585;28;20024;-75
2022/11/14 01:20:22;;;;;;;0.52;0.52;;;;;;;10.39;98.98;101677.94;5066597;28;20481;-74
2022/11/14 01:22:47;;;;;;;0.30;0.30;;;;;;;10.29;99.53;101663.97;5066452;28;20088;-74
2022/11/14 01:25:13;;;;;;;0.52;0.52;;;;;;;10.31;99.43;101664.88;5048994;28;20031;-73
2022/11/14 01:27:38;;;;;;;0.38;0.38;;;;;;;10.27;100.00;101657.91;5066707;28;20388;-73
2022/11/14 01:30:04;;;;;;;0.95;0.95;;;;;;;10.25;100.00;101662.19;5048496;28;20180;-73
2022/11/14 01:32:29;;;;;;;0.40;0.40;;;;;;;10.25;100.00;101664.78;5066304;28;20527;-72
2022/11/14 01:34:55;;;;;;;0.40;0.40;;;;;;;10.24;99.75;101663.91;5048223;28;20032;-73
2022/11/14 01:37:20;;;;;;;0.43;0.43;;;;;;;10.20;99.96;101656.94;5048568;28;20134;-74
2022/11/14 01:39:46;;;;;;;0.40;0.40;;;;;;;10.19;100.00;101655.22;5048317;28;20017;-73
2022/11/14 01:42:11;;;;;;;0.40;0.40;;;;;;;10.20;100.00;101656.94;5065428;28;20111;-71
2022/11/14 01:44:48;;;;;;;0.47;0.47;;;;;;;10.23;99.59;101650.91;5066289;28;20037;-72
2022/11/14 01:47:18;;;;;;;0.40;0.40;;;;;;;10.19;100.00;101649.13;5065959;28;20040;-72
2022/11/14 01:49:47;;;;;;;0.40;0.40;;;;;;;10.22;100.00;101654.38;5066028;28;20032;-72
2022/11/14 01:52:14;;;;;;;0.40;0.40;;;;;;;10.34;99.08;101651.91;5048828;28;20029;-72
2022/11/14 01:54:52;;;;;;;0.40;0.40;;;;;;;10.18;99.73;101635.28;5048875;28;20025;-71
2022/11/14 01:57:27;;;;;;;0.40;0.40;;;;;;;10.25;99.51;101644.03;5067043;28;20058;-72
2022/11/14 01:59:57;;;;;;;0.40;0.40;;;;;;;10.25;100.00;101644.91;5066665;28;20028;-72
2022/11/14 02:02:24;;;;;;;0.40;0.40;;;;;;;10.21;99.78;101629.28;5065864;28;20302;-72
2022/11/14 02:04:57;;;;;;;0.40;0.40;;;;;;;10.26;99.61;101631.06;5065988;28;20075;-71
2022/11/14 02:07:26;;;;;;;0.40;0.40;;;;;;;10.19;99.38;101629.25;5065815;28;20032;-71
2022/11/14 02:09:52;;;;;;;0.50;0.50;;;;;;;10.16;99.12;101624.88;5047499;28;20035;-71
2022/11/14 02:12:18;;;;;;;0.47;0.47;;;;;;;10.15;98.88;101625.75;5047679;28;20060;-71
2022/11/14 02:14:46;;;;;;;0.40;0.40;;;;;;;10.17;98.01;101620.56;5065609;28;20017;-71
2022/11/14 02:17:13;;;;;;;0.40;0.40;;;;;;;10.14;98.31;101626.56;5065373;28;20477;-70
2022/11/14 02:19:52;;;;;;;0.43;0.43;;;;;;;9.99;98.55;101626.38;5065257;28;20025;-72
2022/11/14 02:22:17;;;;;;;0.40;0.40;;;;;;;9.99;98.98;101616.00;5047602;28;20021;-70
2022/11/14 02:24:44;;;;;;;0.50;0.50;;;;;;;10.01;98.92;101622.09;5065657;28;20017;-71
2022/11/14 02:27:10;;;;;;;0.50;0.50;;;;;;;9.98;98.20;101616.84;5065606;28;20469;-70
2022/11/14 02:29:36;;;;;;;0.38;0.38;;;;;;;9.96;98.75;101611.66;5047648;28;20021;-71
2022/11/14 02:32:02;;;;;;;0.40;0.40;;;;;;;10.06;98.01;101616.97;5065325;28;20021;-72
2022/11/14 02:34:28;;;;;;;0.40;0.40;;;;;;;9.94;98.08;101618.53;5065333;28;20036;-71
2022/11/14 02:36:54;;;;;;;0.50;0.50;;;;;;;9.79;98.69;101607.09;5065292;28;20032;-71
2022/11/14 02:39:19;;;;;;;0.40;0.40;;;;;;;9.79;98.17;101609.69;5047067;28;20028;-72
2022/11/14 02:41:45;;;;;;;0.50;0.50;;;;;;;9.73;98.35;101603.56;5065065;28;20099;-72
2022/11/14 02:44:10;;;;;;;0.40;0.40;;;;;;;9.87;96.97;101598.56;5065222;28;20048;-72
2022/11/14 02:46:35;;;;;;;0.40;0.40;;;;;;;9.80;96.79;101597.59;5064789;28;20110;-72
2022/11/14 02:49:01;;;;;;;0.38;0.38;;;;;;;9.78;97.10;101596.69;5065122;28;20029;-72
2022/11/14 02:51:26;;;;;;;0.45;0.45;;;;;;;9.73;96.97;101594.03;5065118;28;20032;-72
2022/11/14 02:53:52;;;;;;;0.40;0.40;;;;;;;9.61;97.98;101589.56;5046664;28;20369;-72
2022/11/14 02:56:17;;;;;;;0.40;0.40;;;;;;;9.57;98.03;101582.56;5065029;28;20075;-71
2022/11/14 02:58:42;;;;;;;0.40;0.40;;;;;;;9.52;98.65;101584.25;5065034;28;20465;-73
2022/11/14 03:01:08;;;;;;;0.50;0.50;;;;;;;9.58;98.98;101593.81;5064951;28;20080;-72
2022/11/14 03:03:33;;;;;;;0.40;0.40;;;;;;;9.57;98.76;101577.38;5064702;28;20013;-72
2022/11/14 03:06:00;;;;;;;0.40;0.40;;;;;;;9.61;98.34;101579.19;5065114;28;20025;-72
2022/11/14 03:08:25;;;;;;;0.40;0.40;;;;;;;9.62;98.53;101580.91;5065079;28;20020;-72
2022/11/14 03:10:50;;;;;;;0.40;0.40;;;;;;;9.58;98.04;101573.97;5065117;28;20055;-72
2022/11/14 03:13:16;;;;;;;0.40;0.40;;;;;;;9.62;97.69;101570.53;5046807;28;20021;-72
2022/11/14 03:15:41;;;;;;;0.40;0.40;;;;;;;9.70;96.56;101577.53;5064880;28;20033;-72
2022/11/14 03:18:06;;;;;;;0.40;0.40;;;;;;;9.66;96.71;101572.31;5064853;28;20063;-72
2022/11/14 03:20:33;;;;;;;0.40;0.40;;;;;;;9.51;97.57;101566.91;5064917;28;20032;-72
2022/11/14 03:22:58;;;;;;;0.50;0.50;;;;;;;9.54;97.51;101565.25;5046995;28;20082;-72
2022/11/14 03:25:24;;;;;;;0.40;0.40;;;;;;;9.56;97.15;101562.69;5065068;28;20033;-71
2022/11/14 03:27:49;;;;;;;0.50;0.50;;;;;;;9.62;96.64;101561.88;5046763;28;20044;-71
2022/11/14 03:30:15;;;;;;;0.40;0.40;;;;;;;9.49;97.53;101558.28;5064661;28;20032;-71
2022/11/14 03:32:40;;;;;;;0.40;0.40;;;;;;;9.45;97.85;101553.88;5064489;28;20031;-71
2022/11/14 03:35:06;;;;;;;0.40;0.40;;;;;;;9.58;97.68;101549.75;5064693;28;20060;-71
2022/11/14 03:37:31;;;;;;;0.50;0.50;;;;;;;9.51;97.25;101546.19;5064692;28;20032;-71
2022/11/14 03:39:57;;;;;;;0.40;0.40;;;;;;;9.47;97.17;101539.22;5064681;28;20029;-73
2022/11/14 03:42:22;;;;;;;0.43;0.43;;;;;;;9.52;97.05;101542.75;5046739;28;20025;-71
2022/11/14 03:44:47;;;;;;;0.43;0.43;;;;;;;9.47;97.33;101540.09;5046694;28;20056;-71
2022/11/14 03:47:13;;;;;;;0.50;0.50;;;;;;;9.39;97.75;101536.53;5064478;28;20029;-72
2022/11/14 03:49:38;;;;;;;0.40;0.40;;;;;;;9.35;97.84;101537.31;5064515;28;20083;-71
2022/11/14 03:52:03;;;;;;;0.40;0.40;;;;;;;9.32;98.12;101530.38;5064798;28;20047;-71
2022/11/14 03:54:29;;;;;;;0.40;0.40;;;;;;;9.39;97.63;101545.16;5064438;28;20032;-71
2022/11/14 03:56:54;;;;;;;0.40;0.40;;;;;;;9.32;98.30;101529.50;5046497;28;20029;-72
2022/11/14 03:59:19;;;;;;;0.50;0.50;;;;;;;9.37;97.88;101539.09;5046367;28;20484;-71
2022/11/14 04:01:45;;;;;;;0.50;0.50;;;;;;;9.42;97.82;101531.38;5064306;28;20037;-70
2022/11/14 04:04:11;;;;;;;0.40;0.40;;;;;;;9.32;98.44;101530.38;5064155;28;20202;-71
2022/11/14 04:06:37;;;;;;;0.40;0.40;;;;;;;9.35;98.45;101525.22;5067828;28;20053;-72
2022/11/14 04:09:03;;;;;;;0.50;0.50;;;;;;;9.37;98.84;101526.13;5068199;28;20075;-72
2022/11/14 04:11:28;;;;;;;0.40;0.40;;;;;;;9.39;98.44;101520.97;5049890;28;20017;-70
2022/11/14 04:13:53;;;;;;;0.40;0.40;;;;;;;9.42;98.03;101521.88;5067547;28;20032;-72
2022/11/14 04:16:19;;;;;;;0.40;0.40;;;;;;;9.41;98.45;101520.13;5068157;28;20055;-71
2022/11/14 04:18:44;;;;;;;0.50;0.50;;;;;;;9.41;98.70;101517.53;5050008;28;20029;-72
2022/11/14 04:21:10;;;;;;;0.40;0.40;;;;;;;9.46;98.30;101517.59;5067818;28;20049;-71
2022/11/14 04:23:35;;;;;;;0.40;0.40;;;;;;;9.46;97.46;101511.53;5049814;28;20021;-71
2022/11/14 04:26:00;;;;;;;0.40;0.40;;;;;;;9.42;96.70;101508.91;5067674;28;20029;-71
2022/11/14 04:28:26;;;;;;;0.40;0.40;;;;;;;9.44;96.44;101516.69;5067625;28;20108;-71
2022/11/14 04:30:51;;;;;;;0.40;0.40;;;;;;;9.42;95.91;101521.00;5067589;28;20084;-71
2022/11/14 04:33:17;;;;;;;0.40;0.40;;;;;;;9.30;96.33;101514.78;5049048;28;20017;-71
2022/11/14 04:35:42;;;;;;;0.45;0.45;;;;;;;9.26;96.96;101517.31;5067458;28;20530;-70
2022/11/14 04:38:09;;;;;;;0.40;0.40;;;;;;;9.34;96.32;101502.75;5067434;28;20083;-71
2022/11/14 04:40:34;;;;;;;0.40;0.40;;;;;;;9.27;95.93;101500.91;5067460;28;20025;-70
2022/11/14 04:42:59;;;;;;;0.40;0.40;;;;;;;9.37;94.43;101495.03;5067223;28;20024;-70
2022/11/14 04:45:25;;;;;;;0.40;0.40;;;;;;;9.02;96.11;101496.25;5067395;28;20489;-72
2022/11/14 04:47:50;;;;;;;0.40;0.40;;;;;;;9.01;96.26;101496.22;5067113;28;20103;-71
2022/11/14 04:50:16;;;;;;;0.50;0.50;;;;;;;9.03;96.83;101499.69;5049312;28;20089;-71
2022/11/14 04:52:41;;;;;;;0.40;0.40;;;;;;;9.01;96.50;101504.84;5067018;28;20029;-70
2022/11/14 04:55:07;;;;;;;2.55;2.45;;;;;;;8.99;96.38;101495.31;5067063;28;20037;-71
2022/11/14 04:57:32;;;;;;;0.50;0.50;;;;;;;8.91;96.49;101490.03;5067238;28;20025;-71
2022/11/14 04:59:58;;;;;;;0.40;0.40;;;;;;;8.86;97.25;101494.25;5066988;28;20055;-71
2022/11/14 05:02:23;;;;;;;0.50;0.50;;;;;;;8.85;97.38;101495.97;5066767;28;20021;-71
2022/11/14 05:04:48;;;;;;;0.45;0.45;;;;;;;8.84;97.44;101486.47;5066999;28;20016;-73
2022/11/14 05:07:14;;;;;;;0.40;0.40;;;;;;;8.97;95.33;101489.25;5048784;28;20025;-73
2022/11/14 05:09:39;;;;;;;0.50;0.50;;;;;;;8.79;96.16;101483.81;5066864;28;20024;-71
2022/11/14 05:12:06;;;;;;;0.40;0.40;;;;;;;8.67;97.01;101484.44;5066934;28;20032;-73
2022/11/14 05:14:31;;;;;;;0.50;0.50;;;;;;;8.68;97.33;101481.03;5066596;28;20080;-73
2022/11/14 05:16:57;;;;;;;0.43;0.43;;;;;;;8.65;97.73;101477.50;5065370;28;20477;-72
2022/11/14 05:19:23;;;;;;;0.50;0.50;;;;;;;8.69;97.67;101474.13;5048917;28;20021;-74
2022/11/14 05:21:48;;;;;;;0.40;0.40;;;;;;;8.75;97.26;101473.38;5048725;28;20029;-74
2022/11/14 05:24:14;;;;;;;0.50;0.50;;;;;;;8.73;97.52;101475.94;5066377;28;20021;-74
2022/11/14 05:26:39;;;;;;;0.50;0.50;;;;;;;8.78;96.81;101479.47;5048581;28;20025;-72
2022/11/14 05:29:05;;;;;;;0.50;0.50;;;;;;;8.78;96.91;101476.00;5066537;28;20029;-68
2022/11/14 05:31:30;;;;;;;0.40;0.40;;;;;;;8.72;96.65;101481.94;5066535;28;20032;-73
2022/11/14 05:33:56;;;;;;;0.50;0.50;;;;;;;8.68;96.74;101481.03;5066190;28;20029;-73
2022/11/14 05:36:21;;;;;;;0.40;0.40;;;;;;;8.64;97.12;101474.03;5048384;28;20040;-72
2022/11/14 05:38:47;;;;;;;0.45;0.45;;;;;;;8.60;97.05;101472.25;5065691;28;20100;-73
2022/11/14 05:41:15;;;;;;;0.40;0.40;;;;;;;8.61;97.17;101476.59;5066410;28;20116;-74
2022/11/14 05:43:40;;;;;;;0.50;0.50;;;;;;;8.60;97.03;101477.44;5066301;28;20047;-74
2022/11/14 05:46:09;;;;;;;0.50;0.50;;;;;;;8.60;97.13;101477.44;5066413;28;20528;-74
2022/11/14 05:48:36;;;;;;;0.50;0.50;;;;;;;8.57;97.11;101471.34;5066261;28;20029;-74
2022/11/14 05:51:03;;;;;;;0.50;0.50;;;;;;;8.59;97.40;101473.13;5066470;28;20032;-74
2022/11/14 05:53:30;;;;;;;1.00;0.95;;;;;;;8.61;97.33;101478.31;5065948;28;20033;-73
2022/11/14 05:56:00;;;;;;;0.47;0.47;;;;;;;8.55;97.40;101472.19;5065755;28;20045;-74
2022/11/14 05:58:26;;;;;;;0.40;0.40;;;;;;;8.63;97.41;101471.44;5066120;28;20025;-72
2022/11/14 06:00:51;;;;;;;0.40;0.40;;;;;;;8.59;97.21;101467.94;5065991;28;20362;-72
2022/11/14 06:03:17;;;;;;;0.50;0.50;;;;;;;8.60;96.98;101469.66;5065819;28;20044;-72
2022/11/14 06:05:42;;;;;;;0.50;0.50;;;;;;;8.49;96.66;101460.81;5065387;28;20021;-72
2022/11/14 06:08:08;;;;;;;0.50;0.50;;;;;;;8.52;96.67;101477.28;5065994;28;20075;-72
2022/11/14 06:10:34;;;;;;;0.50;0.50;;;;;;;8.46;96.56;101465.94;5065792;28;20048;-72
2022/11/14 06:13:00;;;;;;;0.50;0.50;;;;;;;8.42;96.75;101471.06;5065628;28;20028;-72
2022/11/14 06:15:25;;;;;;;0.40;0.40;;;;;;;8.56;94.76;101457.53;5047731;28;20067;-72
2022/11/14 06:17:52;;;;;;;0.55;0.55;;;;;;;8.43;94.99;101454.69;5065455;28;20089;-75
2022/11/14 06:20:18;;;;;;;0.40;0.40;;;;;;;8.31;95.54;101465.69;5047775;28;20063;-75
2022/11/14 06:22:43;;;;;;;0.40;0.40;;;;;;;8.18;96.45;101458.53;5065393;28;20024;-71
2022/11/14 06:25:09;;;;;;;0.40;0.40;;;;;;;8.20;96.99;101464.63;5065505;28;20017;-70
2022/11/14 06:27:34;;;;;;;0.40;0.40;;;;;;;8.25;96.78;101467.28;5064952;28;20025;-72
2022/11/14 06:30:00;;;;;;;0.40;0.40;;;;;;;8.26;96.75;101464.72;5047276;28;20021;-71
2022/11/14 06:32:25;;;;;;;0.40;0.40;;;;;;;8.26;97.09;101469.06;5047478;28;20385;-71
2022/11/14 06:34:50;;;;;;;0.50;0.50;;;;;;;8.30;97.01;101469.13;5065260;28;20025;-71
2022/11/14 06:37:16;;;;;;;0.50;0.50;;;;;;;8.33;96.99;101476.06;5065300;28;20025;-71
2022/11/14 06:39:41;;;;;;;0.40;0.40;;;;;;;8.37;97.05;101474.44;5065211;28;20131;-71
2022/11/14 06:42:06;;;;;;;0.40;0.40;;;;;;;8.36;96.80;101478.72;5065275;28;20065;-71
2022/11/14 06:44:32;;;;;;;0.52;0.52;;;;;;;8.46;95.77;101484.06;5065137;28;20017;-71
2022/11/14 06:46:57;;;;;;;0.40;0.40;;;;;;;8.39;94.97;101481.34;5064961;28;20028;-71
2022/11/14 06:49:23;;;;;;;0.45;0.45;;;;;;;8.49;93.85;101485.00;5065251;28;20032;-70
2022/11/14 06:51:49;;;;;;;0.50;0.50;;;;;;;8.27;93.61;101491.50;5065199;28;20132;-71
2022/11/14 06:54:15;;;;;;;0.40;0.40;;;;;;;8.15;94.16;101485.22;5064793;28;20079;-70
2022/11/14 06:56:41;;;;;;;0.40;0.40;;;;;;;8.12;93.93;101490.34;5062390;28;20049;-69
2022/11/14 06:59:06;;;;;;;0.40;0.40;;;;;;;7.96;94.44;101490.88;5065292;28;20025;-70
2022/11/14 07:01:32;;;;;;;0.50;0.50;;;;;;;7.92;94.89;101501.16;5065171;28;20587;-71
2022/11/14 07:03:59;;;;;;;0.60;0.60;;;;;;;7.86;95.40;101495.88;5065003;28;20045;-71
2022/11/14 07:06:26;;;;;;;0.50;0.50;;;;;;;7.79;96.02;101502.66;5063853;28;20036;-71
2022/11/14 07:08:53;;;;;;;0.40;0.40;;;;;;;7.85;95.17;101485.50;5065166;28;20035;-71
2022/11/14 07:11:25;;;;;;;0.40;0.40;;;;;;;7.81;95.61;101485.44;5065184;28;20067;-71
2022/11/14 07:13:54;;;;;;;;;;;;;;;8.11;94.49;101486.03;5065504;28;20049;-70
2022/11/14 07:16:35;;;;;;;0.50;0.50;;;;;;;7.83;94.63;101482.88;5065450;28;19915;-71
2022/11/14 07:19:03;;;;;;;0.60;0.60;;;;;;;7.81;95.50;101484.59;5065226;28;20028;-72
2022/11/14 07:21:30;;;;;;;0.50;0.50;;;;;;;7.84;95.75;101488.94;5065072;28;20262;-73
2022/11/14 07:23:56;;;;;;;0.47;0.47;;;;;;;7.85;96.38;101490.66;5065166;28;20029;-74
2022/11/14 07:26:22;;;;;;;0.50;0.50;;;;;;;7.93;95.99;101484.81;5065037;28;20103;-74
2022/11/14 07:28:47;;;;;;;0.40;0.40;;;;;;;7.87;95.79;101482.13;5065026;28;20442;-72
2022/11/14 07:31:17;;;;;;;0.50;0.50;;;;;;;7.87;95.69;101478.66;5065077;28;20060;-73
2022/11/14 07:33:43;;;;;;;0.50;0.50;;;;;;;7.98;95.08;101476.28;5063224;28;20036;-73
2022/11/14 07:36:10;;;;;;;0.50;0.50;;;;;;;8.07;93.74;101479.03;5063677;28;20029;-70
2022/11/14 07:38:36;;;;;;;0.40;0.40;;;;;;;7.87;94.60;101474.38;5065018;28;20067;-74
2022/11/14 07:41:10;;;;;;;0.47;0.47;;;;;;;7.80;95.37;101473.34;5067528;28;20063;-72
2022/11/14 07:43:36;;;;;;;0.50;0.50;;;;;;;7.81;95.07;101466.50;5067305;28;20081;-73
2022/11/14 07:46:10;;;;;;;0.47;0.47;;;;;;;8.11;93.44;101472.22;5068966;28;20083;-71
2022/11/14 07:48:36;;;;;;;0.50;0.50;;;;;;;8.15;92.02;101466.25;5068658;28;20056;-72
2022/11/14 07:51:06;;;;;;;0.50;0.50;;;;;;;7.95;92.61;101469.34;5067498;28;20034;-71
2022/11/14 07:53:32;;;;;;;0.50;0.50;;;;;;;7.75;93.66;101463.75;5066985;28;20029;-73
2022/11/14 07:56:04;;;;;;;0.50;0.50;;;;;;;7.81;94.31;101453.56;5068398;28;20075;-71
2022/11/14 07:58:29;;;;;;;0.50;0.50;;;;;;;7.73;94.84;101458.53;5068642;28;20017;-73
2022/11/14 08:00:55;;;;;;;0.50;0.50;;;;;;;7.75;95.23;101456.00;5068587;28;20082;-73
2022/11/14 08:03:20;;;;;;;0.40;0.40;;;;;;;7.79;95.36;101448.34;5050189;28;20457;-72
2022/11/14 08:05:46;;;;;;;0.50;0.50;;;;;;;7.85;95.82;101441.53;5068288;28;20025;-74
2022/11/14 08:08:11;;;;;;;0.45;0.45;;;;;;;7.90;96.03;101443.41;5068242;28;20110;-73
2022/11/14 08:10:36;;;;;;;0.40;0.40;;;;;;;8.06;94.51;101443.69;5068177;28;20017;-74
2022/11/14 08:13:04;;;;;;;0.40;0.40;;;;;;;7.98;94.78;101451.28;5067988;28;20089;-74
2022/11/14 08:15:30;;;;;;;0.40;0.40;;;;;;;7.97;95.18;101448.69;5068381;28;20025;-74
2022/11/14 08:17:59;;;;;;;0.50;0.50;;;;;;;8.04;95.18;101445.34;5050275;28;20112;-74
2022/11/14 08:20:25;;;;;;;0.50;0.50;;;;;;;8.05;95.10;101444.53;5050012;28;20021;-74
2022/11/14 08:23:01;;;;;;;0.50;0.50;;;;;;;8.07;95.29;101440.25;5067939;28;20025;-74
2022/11/14 08:25:26;;;;;;;0.50;0.50;;;;;;;8.12;95.38;101438.63;5068114;28;20105;-75
2022/11/14 08:27:52;;;;;;;0.40;0.40;;;;;;;8.14;95.35;101439.53;5068102;28;20025;-74
2022/11/14 08:30:18;;;;;;;0.50;0.50;;;;;;;8.14;95.15;101436.06;5067797;28;20025;-74
2022/11/14 08:32:43;;;;;;;0.50;0.50;;;;;;;8.19;95.20;101443.06;5049768;28;20037;-74
2022/11/14 08:35:08;;;;;;;2.08;1.98;;;;;;;8.19;94.78;101430.13;5067740;28;20118;-75
2022/11/14 08:37:34;;;;;;;0.50;0.50;;;;;;;8.17;94.70;101433.53;5067703;28;20040;-75
2022/11/14 08:39:59;;;;;;;0.50;0.50;;;;;;;8.20;94.33;101420.66;5049898;28;20029;-75
2022/11/14 08:42:24;;;;;;;0.40;0.40;;;;;;;8.35;93.54;101429.53;5067749;28;20088;-73
2022/11/14 08:44:50;;;;;;;0.40;0.40;;;;;;;8.17;94.27;101431.81;5049799;28;20021;-75
2022/11/14 08:47:15;;;;;;;0.50;0.50;;;;;;;8.17;94.27;101420.59;5067380;28;20035;-74
2022/11/14 08:49:40;;;;;;;0.43;0.43;;;;;;;8.21;94.12;101429.28;5049826;28;20021;-74
2022/11/14 08:52:06;;;;;;;0.50;0.50;;;;;;;8.15;94.41;101423.16;5067267;28;20028;-74
2022/11/14 08:54:31;;;;;;;0.40;0.40;;;;;;;8.22;94.72;101425.84;5066918;28;20029;-74
2022/11/14 08:56:56;;;;;;;0.40;0.40;;;;;;;8.22;95.06;101406.03;5067455;28;20469;-74
2022/11/14 08:59:22;;;;;;;0.50;0.50;;;;;;;8.30;94.78;101411.34;5049294;28;20025;-75
2022/11/14 09:01:47;;;;;;;0.40;0.40;;;;;;;8.32;94.42;101417.41;5049356;28;20025;-75
2022/11/14 09:04:12;;;;;;;0.40;0.40;;;;;;;8.30;94.71;101417.41;5066850;28;20101;-75
2022/11/14 09:06:38;;;;;;;0.50;0.50;;;;;;;8.30;94.57;101408.75;5049008;28;20025;-75
2022/11/14 09:09:03;;;;;;;0.40;0.40;;;;;;;8.31;94.19;101413.94;5048968;28;20028;-75
2022/11/14 09:11:28;;;;;;;0.40;0.40;;;;;;;8.33;94.41;101410.50;5067070;28;20035;-75
2022/11/14 09:13:54;;;;;;;0.50;0.50;;;;;;;8.40;94.02;101409.78;5049022;28;20111;-74
2022/11/14 09:16:19;;;;;;;0.40;0.40;;;;;;;8.32;94.31;101414.84;5067050;28;20492;-75
2022/11/14 09:18:44;;;;;;;0.50;0.50;;;;;;;8.28;94.46;101408.72;5066748;28;20021;-75
2022/11/14 09:21:10;;;;;;;0.40;0.40;;;;;;;8.29;94.68;101410.47;5066810;28;20017;-75
2022/11/14 09:23:36;;;;;;;0.40;0.40;;;;;;;8.38;93.96;101409.75;5066647;28;20028;-74
2022/11/14 09:26:06;;;;;;;0.40;0.40;;;;;;;8.33;94.04;101406.22;5048551;28;20024;-74
2022/11/14 09:28:32;;;;;;;0.50;0.50;;;;;;;8.30;94.08;101406.16;5066553;28;20094;-74
2022/11/14 09:31:05;;;;;;;0.50;0.50;;;;;;;8.27;94.29;101400.94;5066712;28;20483;-74
2022/11/14 09:33:32;;;;;;;0.50;0.50;;;;;;;8.40;93.24;101400.28;5048351;28;20021;-74
2022/11/14 09:36:06;;;;;;;0.47;0.47;;;;;;;8.32;93.24;101404.47;5066668;28;20107;-74
2022/11/14 09:38:33;;;;;;;0.50;0.50;;;;;;;8.25;93.49;101405.22;5066558;28;20409;-74
2022/11/14 09:41:07;;;;;;;0.50;0.50;;;;;;;8.25;93.81;101402.63;5048602;28;20097;-75
2022/11/14 09:43:38;;;;;;;0.40;0.40;;;;;;;8.30;93.92;101406.16;5066524;28;20040;-75
2022/11/14 09:46:30;;;;;;;0.50;0.50;;;;;;;8.29;93.75;101401.84;5048730;28;20021;-74
2022/11/14 09:48:56;;;;;;;0.57;0.57;;;;;;;8.31;93.35;101402.72;5065877;28;20277;-74
2022/11/14 09:51:27;;;;;;;0.40;0.40;;;;;;;8.27;93.78;101403.53;5048244;28;20025;-75
2022/11/14 09:54:07;;;;;;;0.45;0.45;;;;;;;8.25;93.88;101397.44;5066133;28;20025;-74
2022/11/14 09:56:32;;;;;;;0.50;0.50;;;;;;;8.25;94.14;101387.09;5065966;28;20119;-74
2022/11/14 09:58:58;;;;;;;0.40;0.40;;;;;;;8.29;94.09;101384.59;5065969;28;20056;-74
2022/11/14 10:01:43;;;;;;;0.50;0.50;;;;;;;8.35;93.64;101393.31;5066072;28;20063;-75
2022/11/14 10:04:16;;;;;;;0.52;0.52;;;;;;;8.33;94.11;101390.69;5044665;28;20112;-75
2022/11/14 10:06:51;;;;;;;0.50;0.50;;;;;;;8.37;93.88;101386.44;5065845;28;20033;-75
2022/11/14 10:09:46;;;;;;;0.50;0.50;;;;;;;8.41;94.19;101388.22;5066009;28;20033;-75
2022/11/14 10:13:03;;;;;;;0.50;0.50;;;;;;;8.45;94.14;101383.97;5066234;28;20028;-74
2022/11/14 10:16:01;;;;;;;0.50;0.50;;;;;;;8.47;94.09;101377.97;5051865;28;20129;-74
2022/11/14 10:18:37;;;;;;;0.50;0.50;;;;;;;8.48;94.16;101365.91;5065678;28;20021;-74
2022/11/14 10:21:27;;;;;;;0.50;0.50;;;;;;;8.52;93.63;101358.22;5047882;28;20024;-75
2022/11/14 10:24:12;;;;;;;0.50;0.50;;;;;;;8.47;93.05;101356.38;5047718;28;20025;-74
2022/11/14 10:26:52;;;;;;;0.40;0.40;;;;;;;8.48;93.44;101355.56;5065577;28;20049;-75
2022/11/14 10:29:42;;;;;;;0.40;0.40;;;;;;;8.49;93.48;101354.72;5065612;28;20040;-74
2022/11/14 10:32:13;;;;;;;1.02;1.02;;;;;;;8.52;93.55;101342.69;5065345;28;20054;-74
2022/11/14 10:34:46;;;;;;;0.43;0.43;;;;;;;8.53;93.79;101336.66;5065454;28;20171;-74
2022/11/14 10:37:19;;;;;;;0.50;0.50;;;;;;;8.59;93.38;101335.94;5048077;28;20106;-74
2022/11/14 10:39:53;;;;;;;0.40;0.40;;;;;;;8.62;93.64;101335.97;5065558;28;20021;-74
2022/11/14 10:42:21;;;;;;;0.50;0.50;;;;;;;8.65;93.43;101333.44;5047623;28;20028;-75
2022/11/14 10:44:56;;;;;;;0.50;0.50;;;;;;;8.68;93.58;101328.28;5065303;28;20024;-74
2022/11/14 10:47:24;;;;;;;0.40;0.40;;;;;;;8.73;92.85;101318.00;5065295;28;20051;-73
2022/11/14 10:49:54;;;;;;;0.50;0.50;;;;;;;8.64;93.46;101303.19;5065594;28;20028;-75
2022/11/14 10:52:25;;;;;;;0.70;0.70;;;;;;;8.82;92.98;101326.75;5047483;28;20055;-75
2022/11/14 10:55:02;;;;;;;0.40;0.40;;;;;;;8.83;93.42;101324.19;5064948;28;20118;-74
2022/11/14 10:57:28;;;;;;;0.50;0.50;;;;;;;8.90;92.97;101320.81;5065750;28;20346;-76
2022/11/14 10:59:54;;;;;;;0.40;0.40;;;;;;;8.92;93.47;101319.13;5065304;28;20191;-74
2022/11/14 11:02:19;;;;;;;0.40;0.40;;;;;;;8.95;93.17;101307.03;5047215;28;20028;-74
2022/11/14 11:04:45;;;;;;;1.33;1.33;;;;;;;9.00;93.02;101305.38;5065174;28;20287;-74
2022/11/14 11:11:28;;;;;;;0.50;0.50;;;;;;;9.02;92.85;101311.47;5047476;28;20362;-75
2022/11/14 11:12:52;;;;;;;0.50;0.50;;;;;;;9.08;92.71;101310.66;5065482;28;20082;-75
2022/11/14 11:15:22;;;;;;;0.60;0.60;;;;;;;9.12;92.32;101305.53;5068323;28;20063;-74
2022/11/14 11:17:54;;;;;;;0.40;0.40;;;;;;;9.12;91.68;101300.34;5069090;28;20103;-74
2022/11/14 11:20:26;;;;;;;0.50;0.50;;;;;;;9.10;91.52;101289.13;5069098;28;20036;-76
2022/11/14 11:23:08;;;;;;;0.50;0.50;;;;;;;9.25;90.46;101287.56;5069105;28;20028;-75
2022/11/14 11:25:33;;;;;;;0.60;0.60;;;;;;;9.25;90.20;101296.19;5069032;28;20025;-75
2022/11/14 11:28:15;;;;;;;0.50;0.50;;;;;;;9.19;90.02;101278.00;5050851;28;20082;-74
2022/11/14 11:30:55;;;;;;;0.50;0.50;;;;;;;9.15;90.35;101279.66;5050767;28;20544;-74
2022/11/14 11:33:22;;;;;;;0.40;0.40;;;;;;;9.14;89.73;101272.75;5068545;28;20025;-76
2022/11/14 11:35:49;;;;;;;0.40;0.40;;;;;;;9.24;88.48;101262.50;5050826;28;20032;-74
2022/11/14 11:38:18;;;;;;;0.40;0.40;;;;;;;9.29;87.75;101261.72;5069078;28;20067;-72